Etusivu
METAR-TAF:

METAR-TAF

Lentoasemat :

South Wood County Airport (Alexander Field)

Wisconsin Rapids, Wisconsin, Yhdysvallat

Leveyspiiri: 44-21-33N, Pituuspiiri: 089-50-13W, korkeus merenpinnasta: 311 m

Tämänhetkinen sää

Tämä raportti tehtiin 15 minuuttia sitten, kello 13.49 UTC
tyyntä
Lämpötila 4°C
Kosteus 93%
Ilmanpaine 993 hPa
Näkyvyys: 14.5 km
Pilvistä 600 ft:n korkeudessa
heikkoa sadetta

METAR: KISW 291349Z AUTO 00000KT 9SM -RA OVC006 04/03 A2932 RMK AO2 P0003

Aika: 09:04 (14:04 UTC)


TAF: puuttuu

Säähavainnot ja -ennusteet yli 4000 lentoasemalta (METAR- ja TAF-raportit).

Käytössä olevat sääasemat on merkitty karttaan keltaisilla ja punaisilla pisteillä.

Aseta hiiri pisteen päälle nähdäksesi sääaseman nimen.

Klikkaa sitten nähdäksesi säähavainnot ja -ennusteet.

Kartan vaihtaminen: klikkaa mustalla rastilla varustettuja vihreitä pisteitä, niin voit zoomata sisään; viivalla varustettua vihreää pistettä, niin voit zoomata ulos tai vihreitä nuolia, niin pääset viereisille kartoille.


METAR-TAF: